Time;durP1;ratioP1;P1;durP2;ratioP2;P2;SDS_P1;SDS_P2;PMS_P1;PMS_P2;Temp;Humidity;BMP_temperature;BMP_pressure;BME280_temperature;BME280_humidity;BME280_pressure;Samples;Min_cycle;Max_cycle;Signal;HPM_P1;HPM_P2
2023/04/19 00:00:53;;;;;;;12.57;10.05;;;11.60;80.30;;;;;;4961838;28;20066;-64
2023/04/19 00:03:18;;;;;;;15.73;10.27;;;11.60;80.30;;;;;;4974327;28;20035;-64
2023/04/19 00:05:44;;;;;;;11.75;9.77;;;11.60;80.50;;;;;;4974120;28;20034;-64
2023/04/19 00:08:10;;;;;;;13.43;10.07;;;11.60;80.50;;;;;;4956666;28;20592;-64
2023/04/19 00:10:37;;;;;;;12.23;9.48;;;11.60;80.50;;;;;;4973171;28;20215;-64
2023/04/19 00:13:03;;;;;;;12.02;9.20;;;11.60;80.40;;;;;;4974249;28;20403;-64
2023/04/19 00:15:28;;;;;;;13.10;10.10;;;11.60;80.40;;;;;;4978116;28;20042;-64
2023/04/19 00:17:55;;;;;;;13.52;9.85;;;11.60;81.20;;;;;;4977208;28;20039;-64
2023/04/19 00:20:21;;;;;;;14.13;10.27;;;11.60;80.40;;;;;;4973249;28;20050;-64
2023/04/19 00:22:46;;;;;;;12.15;9.93;;;11.60;80.40;;;;;;4964634;28;25813;-64
2023/04/19 00:25:12;;;;;;;12.20;9.93;;;11.60;80.50;;;;;;4984174;28;20121;-64
2023/04/19 00:27:38;;;;;;;11.90;9.52;;;11.60;80.60;;;;;;4984184;28;20066;-64
2023/04/19 00:30:04;;;;;;;12.52;9.50;;;11.60;80.80;;;;;;4984965;28;20030;-64
2023/04/19 00:32:29;;;;;;;13.65;9.65;;;11.60;80.80;;;;;;4974114;28;20485;-64
2023/04/19 00:34:55;;;;;;;12.05;9.63;;;11.60;80.80;;;;;;4972038;28;20063;-64
2023/04/19 00:37:21;;;;;;;12.50;9.93;;;11.60;80.80;;;;;;4974286;28;20035;-64
2023/04/19 00:39:46;;;;;;;13.13;10.15;;;11.50;80.80;;;;;;4974759;28;20031;-64
2023/04/19 00:42:12;;;;;;;12.23;10.23;;;11.50;80.80;;;;;;4973700;28;20038;-64
2023/04/19 00:44:37;;;;;;;14.40;9.55;;;11.50;80.70;;;;;;4972343;28;20050;-64
2023/04/19 00:47:03;;;;;;;11.35;9.88;;;11.50;80.70;;;;;;4982117;28;20034;-64
2023/04/19 00:49:29;;;;;;;11.73;9.57;;;11.50;80.60;;;;;;4982048;28;20046;-64
2023/04/19 00:51:55;;;;;;;12.05;9.73;;;11.50;80.60;;;;;;4975662;28;20038;-64
2023/04/19 00:54:21;;;;;;;12.50;9.95;;;11.60;81.50;;;;;;4974281;28;20545;-64
2023/04/19 00:56:46;;;;;;;11.27;9.45;;;11.50;80.60;;;;;;4976280;28;20046;-64
2023/04/19 00:59:14;;;;;;;11.85;9.77;;;11.50;80.50;;;;;;4977633;28;20042;-64
2023/04/19 01:01:40;;;;;;;12.00;9.63;;;11.40;80.60;;;;;;4976673;28;20054;-64
2023/04/19 01:04:06;;;;;;;13.15;10.35;;;11.50;80.60;;;;;;4976070;28;20092;-64
2023/04/19 01:06:35;;;;;;;13.02;10.48;;;11.40;80.60;;;;;;4973376;28;20130;-64
2023/04/19 01:09:01;;;;;;;13.52;10.55;;;11.40;80.70;;;;;;4974636;28;20414;-64
2023/04/19 01:11:27;;;;;;;14.20;10.93;;;11.40;80.60;;;;;;4975620;28;20035;-64
2023/04/19 01:13:54;;;;;;;13.82;11.13;;;11.40;80.90;;;;;;4973497;28;20042;-64
2023/04/19 01:16:20;;;;;;;14.75;11.63;;;11.30;80.80;;;;;;4973869;28;20102;-64
2023/04/19 01:18:45;;;;;;;14.00;10.77;;;11.30;80.90;;;;;;4976497;28;20072;-64
2023/04/19 01:21:11;;;;;;;14.65;10.90;;;11.30;81.00;;;;;;4977896;28;20050;-64
2023/04/19 01:23:38;;;;;;;13.77;10.70;;;11.30;81.10;;;;;;4977617;28;20039;-64
2023/04/19 01:26:04;;;;;;;12.02;9.80;;;11.30;81.20;;;;;;4977139;28;20027;-64
2023/04/19 01:28:30;;;;;;;13.43;10.60;;;11.20;81.20;;;;;;4976521;28;20360;-64
2023/04/19 01:30:56;;;;;;;13.73;10.07;;;11.20;81.70;;;;;;4976117;28;20327;-64
2023/04/19 01:33:22;;;;;;;13.57;10.43;;;11.20;81.30;;;;;;4975706;28;20047;-64
2023/04/19 01:35:48;;;;;;;13.95;10.63;;;11.20;81.40;;;;;;4979373;28;20046;-64
2023/04/19 01:38:14;;;;;;;13.32;10.90;;;11.20;81.50;;;;;;4977553;28;20125;-64
2023/04/19 01:40:40;;;;;;;13.05;10.68;;;11.10;81.50;;;;;;4976796;28;20038;-64
2023/04/19 01:43:07;;;;;;;15.15;11.10;;;11.10;81.70;;;;;;4977836;28;20057;-64
2023/04/19 01:45:34;;;;;;;13.55;10.60;;;11.10;81.70;;;;;;4974856;28;20035;-64
2023/04/19 01:48:02;;;;;;;12.73;10.68;;;11.10;81.70;;;;;;4977592;28;20046;-64
2023/04/19 01:50:27;;;;;;;12.68;10.88;;;11.10;81.80;;;;;;4977699;28;20045;-65
2023/04/19 01:52:53;;;;;;;12.60;10.52;;;11.10;81.80;;;;;;4979934;28;20046;-64
2023/04/19 01:55:19;;;;;;;13.35;10.93;;;11.10;81.90;;;;;;4976738;28;20048;-64
2023/04/19 01:57:44;;;;;;;13.38;10.70;;;11.10;81.90;;;;;;4982915;28;20498;-64
2023/04/19 02:00:11;;;;;;;14.55;10.50;;;11.10;81.90;;;;;;4981618;28;20050;-64
2023/04/19 02:02:37;;;;;;;12.95;10.63;;;11.10;82.00;;;;;;4980817;28;20035;-64
2023/04/19 02:05:05;;;;;;;12.77;10.30;;;11.00;81.90;;;;;;4980120;28;20064;-64
2023/04/19 02:07:30;;;;;;;15.27;11.57;;;11.00;82.00;;;;;;4978347;28;20090;-64
2023/04/19 02:09:58;;;;;;;14.07;11.70;;;11.00;82.20;;;;;;4980890;28;20035;-64
2023/04/19 02:12:27;;;;;;;12.90;11.40;;;11.00;82.10;;;;;;4974769;28;20031;-64
2023/04/19 02:14:56;;;;;;;13.30;11.25;;;11.00;82.20;;;;;;4975193;28;20080;-64
2023/04/19 02:17:22;;;;;;;14.43;10.65;;;10.90;82.30;;;;;;4976088;28;20130;-64
2023/04/19 02:19:47;;;;;;;12.25;10.07;;;10.90;82.40;;;;;;4977513;28;20038;-64
2023/04/19 02:22:13;;;;;;;12.55;10.90;;;10.90;82.30;;;;;;4983807;28;20065;-64
2023/04/19 02:24:39;;;;;;;14.98;10.90;;;10.90;82.40;;;;;;4985841;28;20046;-64
2023/04/19 02:27:04;;;;;;;14.38;11.40;;;10.90;82.40;;;;;;4984321;28;20050;-64
2023/04/19 02:29:31;;;;;;;17.20;11.75;;;10.90;82.50;;;;;;4980547;28;20835;-64
2023/04/19 02:31:57;;;;;;;13.82;11.00;;;10.90;82.60;;;;;;4976948;28;20034;-64
2023/04/19 02:34:22;;;;;;;16.20;11.20;;;10.90;83.40;;;;;;4977784;28;20035;-64
2023/04/19 02:36:48;;;;;;;14.73;11.57;;;10.90;82.70;;;;;;4974825;28;20243;-64
2023/04/19 02:39:13;;;;;;;14.02;11.10;;;10.80;82.70;;;;;;4974731;28;20115;-64
2023/04/19 02:41:40;;;;;;;13.23;10.68;;;10.80;82.70;;;;;;4977482;28;20069;-64
2023/04/19 02:44:05;;;;;;;14.85;11.02;;;10.80;82.70;;;;;;4974308;28;20050;-64
2023/04/19 02:46:31;;;;;;;13.18;11.20;;;10.80;82.70;;;;;;4976432;28;20030;-64
2023/04/19 02:48:56;;;;;;;14.90;11.35;;;10.80;82.70;;;;;;4974162;28;20069;-64
2023/04/19 02:51:22;;;;;;;13.90;11.38;;;10.80;82.80;;;;;;4978023;28;20042;-64
2023/04/19 02:53:47;;;;;;;13.45;10.95;;;10.80;82.90;;;;;;4974641;28;20050;-64
2023/04/19 02:56:13;;;;;;;15.13;11.60;;;10.80;82.90;;;;;;4975604;28;20454;-64
2023/04/19 02:58:39;;;;;;;15.68;11.32;;;10.80;82.90;;;;;;4976351;28;20034;-64
2023/04/19 03:01:05;;;;;;;15.35;11.68;;;10.80;82.90;;;;;;4974973;28;20116;-64
2023/04/19 03:03:31;;;;;;;13.40;11.57;;;10.80;83.00;;;;;;4982579;28;20037;-64
2023/04/19 03:05:56;;;;;;;14.57;12.00;;;10.80;83.00;;;;;;4978400;28;20440;-64
2023/04/19 03:08:22;;;;;;;15.00;12.18;;;10.80;83.00;;;;;;4977317;28;20093;-64
2023/04/19 03:10:48;;;;;;;14.23;11.80;;;10.80;83.00;;;;;;4975193;28;20035;-64
2023/04/19 03:13:13;;;;;;;15.00;12.35;;;10.80;83.10;;;;;;4974466;28;20049;-64
2023/04/19 03:15:39;;;;;;;15.23;12.07;;;10.80;83.10;;;;;;4973890;28;20155;-64
2023/04/19 03:18:04;;;;;;;17.10;12.93;;;10.80;83.20;;;;;;4975206;28;20050;-64
2023/04/19 03:20:30;;;;;;;16.92;13.05;;;10.70;83.10;;;;;;4975265;28;20516;-63
2023/04/19 03:22:55;;;;;;;17.33;13.27;;;10.70;83.30;;;;;;4979315;28;20030;-64
2023/04/19 03:25:21;;;;;;;16.35;13.18;;;10.70;83.30;;;;;;4976075;28;20647;-64
2023/04/19 03:27:47;;;;;;;16.60;13.48;;;10.70;83.30;;;;;;4979993;28;20081;-64
2023/04/19 03:30:13;;;;;;;19.42;14.13;;;10.80;83.40;;;;;;4983255;28;20516;-64
2023/04/19 03:32:38;;;;;;;17.25;13.70;;;10.70;83.40;;;;;;4984319;28;20039;-64
2023/04/19 03:35:04;;;;;;;16.63;13.60;;;10.70;83.40;;;;;;4968582;28;20038;-64
2023/04/19 03:37:30;;;;;;;17.20;13.80;;;10.70;83.50;;;;;;4985710;28;20042;-64
2023/04/19 03:39:55;;;;;;;17.58;13.80;;;10.70;83.50;;;;;;4985804;28;20042;-64
2023/04/19 03:42:21;;;;;;;18.55;14.40;;;10.70;83.40;;;;;;4959413;28;20047;-64
2023/04/19 03:44:47;;;;;;;19.67;14.68;;;10.70;83.60;;;;;;4972684;28;20046;-63
2023/04/19 03:47:12;;;;;;;19.08;14.35;;;10.70;83.60;;;;;;4973033;28;20070;-64
2023/04/19 03:49:38;;;;;;;19.92;14.82;;;10.70;83.60;;;;;;4980491;28;20544;-64
2023/04/19 03:52:04;;;;;;;23.38;15.50;;;10.70;83.60;;;;;;4978207;28;20410;-64
2023/04/19 03:54:29;;;;;;;19.17;14.60;;;10.70;83.80;;;;;;4980407;28;20125;-63
2023/04/19 03:56:55;;;;;;;22.27;14.70;;;10.70;83.80;;;;;;4974585;28;20034;-64
2023/04/19 03:59:21;;;;;;;22.38;15.38;;;10.60;83.80;;;;;;4973665;28;20061;-64
2023/04/19 04:01:47;;;;;;;20.73;15.32;;;10.60;83.80;;;;;;4973866;28;20128;-64
2023/04/19 04:04:12;;;;;;;25.92;16.92;;;10.60;83.90;;;;;;4975025;28;20580;-64
2023/04/19 04:06:38;;;;;;;18.77;14.68;;;10.60;83.90;;;;;;4974558;28;20035;-64
2023/04/19 04:09:03;;;;;;;20.10;16.13;;;10.70;84.00;;;;;;4978721;28;20046;-64
2023/04/19 04:11:29;;;;;;;20.00;15.52;;;10.60;83.90;;;;;;4975796;28;20038;-64
2023/04/19 04:13:55;;;;;;;19.60;15.52;;;10.70;84.00;;;;;;4974679;28;20041;-64
2023/04/19 04:16:21;;;;;;;22.60;15.52;;;10.70;84.00;;;;;;4974863;28;20046;-64
2023/04/19 04:18:46;;;;;;;21.05;15.98;;;10.70;84.00;;;;;;4972363;28;20061;-64
2023/04/19 04:21:12;;;;;;;20.48;15.63;;;10.70;84.00;;;;;;4975223;28;20494;-64
2023/04/19 04:23:38;;;;;;;19.85;15.80;;;10.70;84.00;;;;;;4984506;28;20037;-64
2023/04/19 04:26:05;;;;;;;22.40;17.25;;;10.70;84.00;;;;;;4977086;28;20057;-64
2023/04/19 04:28:30;;;;;;;20.98;16.17;;;10.70;83.80;;;;;;4983337;28;20042;-63
2023/04/19 04:30:57;;;;;;;21.65;16.33;;;10.70;83.80;;;;;;4979977;28;20177;-63
2023/04/19 04:33:27;;;;;;;21.65;17.02;;;10.70;83.90;;;;;;4965520;28;20042;-64
2023/04/19 04:35:54;;;;;;;22.35;16.52;;;10.70;84.00;;;;;;4981742;28;20043;-64
2023/04/19 04:38:20;;;;;;;22.65;17.30;;;10.60;83.80;;;;;;4982711;28;20066;-64
2023/04/19 04:40:55;;;;;;;21.13;16.55;;;10.60;83.80;;;;;;4981758;28;20633;-64
2023/04/19 04:43:21;;;;;;;;;;;10.60;84.10;;;;;;4982362;28;20092;-64
2023/04/19 04:45:47;;;;;;;21.52;15.93;;;10.70;84.40;;;;;;4981126;28;19924;-64
2023/04/19 04:48:13;;;;;;;22.73;17.05;;;10.60;83.60;;;;;;4980621;28;20043;-64
2023/04/19 04:50:39;;;;;;;22.23;16.75;;;10.60;83.70;;;;;;4981319;28;20070;-64
2023/04/19 04:53:04;;;;;;;22.83;16.80;;;10.60;83.80;;;;;;4980857;28;20457;-64
2023/04/19 04:55:30;;;;;;;21.52;16.42;;;10.60;83.80;;;;;;4983575;28;20356;-64
2023/04/19 04:57:55;;;;;;;23.42;17.08;;;10.60;83.80;;;;;;4974993;28;20037;-64
2023/04/19 05:00:22;;;;;;;23.73;17.08;;;10.60;83.90;;;;;;4986197;28;20528;-64
2023/04/19 05:02:47;;;;;;;22.35;17.10;;;10.70;84.00;;;;;;4983284;28;20465;-64
2023/04/19 05:05:13;;;;;;;22.45;17.15;;;10.60;83.90;;;;;;4986207;28;20089;-63
2023/04/19 05:07:39;;;;;;;21.77;16.70;;;10.70;84.00;;;;;;4986865;28;20042;-64
2023/04/19 05:10:06;;;;;;;26.83;17.63;;;10.70;84.10;;;;;;4985197;28;20267;-64
2023/04/19 05:12:31;;;;;;;21.80;16.38;;;10.70;84.10;;;;;;4983997;28;20031;-64
2023/04/19 05:14:57;;;;;;;22.90;16.85;;;10.70;84.10;;;;;;4984405;28;20134;-64
2023/04/19 05:17:23;;;;;;;23.30;17.40;;;10.70;84.10;;;;;;4986250;28;20034;-64
2023/04/19 05:19:48;;;;;;;22.05;16.35;;;10.70;84.10;;;;;;4984234;28;20121;-64
2023/04/19 05:22:14;;;;;;;23.05;17.05;;;10.70;84.10;;;;;;4986409;28;20042;-64
2023/04/19 05:24:40;;;;;;;22.15;16.85;;;10.70;84.00;;;;;;4985546;28;20096;-64
2023/04/19 05:27:05;;;;;;;26.38;17.48;;;10.70;84.00;;;;;;4984120;28;20100;-64
2023/04/19 05:29:31;;;;;;;24.25;17.42;;;10.70;84.10;;;;;;4984767;28;20038;-64
2023/04/19 05:31:57;;;;;;;25.77;17.63;;;10.70;84.10;;;;;;4985000;28;20174;-64
2023/04/19 05:34:23;;;;;;;22.83;16.83;;;10.70;84.10;;;;;;4984566;28;20040;-64
2023/04/19 05:36:48;;;;;;;24.92;17.65;;;10.70;84.10;;;;;;4968592;28;20405;-64
2023/04/19 05:39:14;;;;;;;23.38;17.02;;;10.70;84.10;;;;;;4984053;28;20035;-64
2023/04/19 05:41:40;;;;;;;23.83;16.95;;;10.80;84.10;;;;;;4985454;28;20034;-64
2023/04/19 05:44:05;;;;;;;24.02;17.98;;;10.80;84.20;;;;;;4983857;28;20043;-64
2023/04/19 05:46:31;;;;;;;22.67;16.55;;;10.80;84.20;;;;;;4983842;28;20133;-63
2023/04/19 05:48:57;;;;;;;23.30;16.67;;;10.80;84.10;;;;;;4984807;28;20069;-64
2023/04/19 05:51:22;;;;;;;24.77;17.15;;;10.90;84.10;;;;;;4984637;28;20042;-64
2023/04/19 05:53:48;;;;;;;22.50;17.02;;;10.80;84.00;;;;;;4985101;28;20525;-64
2023/04/19 05:56:13;;;;;;;24.05;17.20;;;10.90;84.00;;;;;;4984226;28;20061;-64
2023/04/19 05:58:39;;;;;;;26.20;17.88;;;10.90;83.90;;;;;;4986032;28;20046;-63
2023/04/19 06:01:05;;;;;;;25.38;17.70;;;10.90;83.90;;;;;;4983231;28;20050;-63
2023/04/19 06:03:32;;;;;;;21.95;16.63;;;10.90;83.90;;;;;;4984472;28;20041;-64
2023/04/19 06:05:58;;;;;;;26.35;18.77;;;10.90;83.80;;;;;;4985393;28;20049;-64
2023/04/19 06:08:23;;;;;;;22.92;16.55;;;10.90;83.80;;;;;;4984086;28;20042;-64
2023/04/19 06:10:49;;;;;;;21.65;16.52;;;10.90;83.80;;;;;;4983493;28;20146;-64
2023/04/19 06:13:15;;;;;;;24.63;17.60;;;10.90;83.80;;;;;;4982461;28;20053;-64
2023/04/19 06:15:41;;;;;;;22.42;15.93;;;10.90;83.90;;;;;;4984346;28;20597;-63
2023/04/19 06:18:09;;;;;;;23.27;16.45;;;10.90;83.70;;;;;;4983039;28;20053;-64
2023/04/19 06:20:38;;;;;;;24.25;16.20;;;10.90;83.70;;;;;;4984315;28;20205;-64
2023/04/19 06:23:04;;;;;;;20.13;15.45;;;10.90;83.80;;;;;;4985088;28;20110;-64
2023/04/19 06:25:30;;;;;;;21.48;15.75;;;10.90;83.80;;;;;;4986368;28;20092;-64
2023/04/19 06:27:55;;;;;;;24.65;16.27;;;10.90;84.60;;;;;;4984816;28;20485;-64
2023/04/19 06:30:21;;;;;;;20.90;15.85;;;10.90;83.60;;;;;;4983587;28;20035;-64
2023/04/19 06:32:47;;;;;;;21.90;16.10;;;10.90;83.60;;;;;;4983813;28;20057;-64
2023/04/19 06:35:12;;;;;;;26.33;16.75;;;10.90;83.70;;;;;;4983578;28;20497;-64
2023/04/19 06:37:38;;;;;;;21.63;15.50;;;10.90;83.80;;;;;;4984885;28;20150;-64
2023/04/19 06:40:07;;;;;;;21.90;15.68;;;10.90;83.70;;;;;;4985020;28;20026;-64
2023/04/19 06:42:33;;;;;;;20.80;14.82;;;10.90;83.60;;;;;;4983192;28;20515;-64
2023/04/19 06:44:59;;;;;;;22.45;15.68;;;10.90;83.60;;;;;;4984311;28;20085;-63
2023/04/19 06:47:24;;;;;;;21.92;15.40;;;10.90;83.40;;;;;;4983576;28;20034;-64
2023/04/19 06:49:50;;;;;;;22.65;16.17;;;10.90;83.40;;;;;;4985073;28;20030;-64
2023/04/19 06:52:16;;;;;;;23.25;16.30;;;10.90;83.40;;;;;;4984899;28;20042;-64
2023/04/19 06:54:41;;;;;;;23.33;16.33;;;10.90;83.40;;;;;;4981428;28;20038;-64
2023/04/19 06:57:07;;;;;;;23.70;16.02;;;10.80;83.40;;;;;;4985201;28;20034;-64
2023/04/19 06:59:32;;;;;;;23.02;15.63;;;10.80;83.40;;;;;;4982952;28;20902;-64
2023/04/19 07:01:58;;;;;;;22.17;15.20;;;10.80;83.40;;;;;;4984650;28;20030;-64
2023/04/19 07:04:26;;;;;;;24.75;16.20;;;10.80;83.60;;;;;;4983203;28;20047;-64
2023/04/19 07:06:52;;;;;;;25.95;16.42;;;10.80;83.70;;;;;;4981693;28;20042;-64
2023/04/19 07:09:17;;;;;;;23.10;15.40;;;10.80;83.70;;;;;;4980637;28;20026;-64
2023/04/19 07:11:43;;;;;;;27.50;15.48;;;10.80;83.80;;;;;;4983401;28;20494;-64
2023/04/19 07:14:08;;;;;;;25.95;16.00;;;10.80;83.80;;;;;;4982164;28;20109;-64
2023/04/19 07:16:34;;;;;;;24.52;15.80;;;10.80;84.00;;;;;;4982000;28;20026;-63
2023/04/19 07:19:00;;;;;;;22.02;15.30;;;10.70;84.00;;;;;;4979911;28;20039;-64
2023/04/19 07:21:29;;;;;;;27.05;18.35;;;10.70;83.80;;;;;;4983234;28;20023;-64
2023/04/19 07:23:54;;;;;;;23.08;15.90;;;10.80;84.00;;;;;;4982936;28;20046;-64
2023/04/19 07:26:20;;;;;;;23.42;15.20;;;10.80;84.00;;;;;;4983895;28;20034;-64
2023/04/19 07:28:45;;;;;;;22.42;14.93;;;10.80;84.00;;;;;;4981846;28;20041;-64
2023/04/19 07:31:16;;;;;;;23.48;15.75;;;10.80;84.00;;;;;;4983036;28;20482;-64
2023/04/19 07:33:42;;;;;;;21.05;14.18;;;10.80;84.00;;;;;;4979961;28;20046;-64
2023/04/19 07:36:08;;;;;;;20.95;14.70;;;10.80;83.80;;;;;;4984726;28;20054;-64
2023/04/19 07:38:34;;;;;;;25.83;15.43;;;10.80;83.80;;;;;;4983807;28;20050;-64
2023/04/19 07:41:00;;;;;;;22.65;15.18;;;10.80;83.90;;;;;;4982740;28;20328;-64
2023/04/19 07:43:25;;;;;;;25.48;15.75;;;10.90;83.80;;;;;;4980481;28;20045;-64
2023/04/19 07:45:52;;;;;;;22.40;14.18;;;10.80;83.70;;;;;;4982180;28;20548;-64
2023/04/19 07:48:17;;;;;;;22.83;14.60;;;10.80;83.60;;;;;;4982519;28;20042;-64
2023/04/19 07:50:43;;;;;;;22.83;14.23;;;10.80;83.80;;;;;;4982330;28;20117;-64
2023/04/19 07:53:09;;;;;;;22.77;14.65;;;10.80;83.90;;;;;;4965637;28;20061;-64
2023/04/19 07:55:35;;;;;;;22.38;14.57;;;10.90;83.80;;;;;;4982962;28;20580;-64
2023/04/19 07:58:01;;;;;;;23.48;15.23;;;10.80;83.60;;;;;;4984194;28;20264;-64
2023/04/19 08:00:28;;;;;;;24.10;14.13;;;10.90;83.80;;;;;;4982058;28;20046;-64
2023/04/19 08:02:55;;;;;;;22.38;14.70;;;10.90;83.80;;;;;;4975691;28;20117;-64
2023/04/19 08:05:21;;;;;;;26.02;15.40;;;10.90;83.80;;;;;;4982638;28;20046;-64
2023/04/19 08:07:47;;;;;;;24.63;14.40;;;10.90;83.70;;;;;;4982664;28;20414;-63
2023/04/19 08:10:13;;;;;;;26.17;15.18;;;10.90;83.60;;;;;;4984495;28;20070;-64
2023/04/19 08:12:40;;;;;;;25.58;15.82;;;10.90;83.60;;;;;;4980079;28;20030;-64
2023/04/19 08:15:07;;;;;;;24.35;14.65;;;10.90;83.60;;;;;;4985680;28;20149;-64
2023/04/19 08:17:33;;;;;;;24.02;15.73;;;10.90;83.60;;;;;;4982866;28;20065;-64
2023/04/19 08:19:58;;;;;;;23.17;15.20;;;11.00;83.60;;;;;;4982727;28;20132;-64
2023/04/19 08:22:24;;;;;;;25.75;15.30;;;11.00;83.60;;;;;;4983628;28;20046;-64
2023/04/19 08:24:50;;;;;;;27.17;14.55;;;11.00;83.60;;;;;;4984126;28;20038;-64
2023/04/19 08:27:16;;;;;;;25.17;15.48;;;11.10;83.70;;;;;;4970318;28;20299;-64
2023/04/19 08:29:42;;;;;;;24.38;15.30;;;11.10;83.80;;;;;;4984720;28;20034;-64
2023/04/19 08:32:08;;;;;;;27.90;15.88;;;11.10;83.60;;;;;;4983039;28;20044;-64
2023/04/19 08:34:35;;;;;;;27.10;16.00;;;11.20;83.80;;;;;;4982170;28;20038;-64
2023/04/19 08:37:01;;;;;;;25.98;15.05;;;11.20;83.60;;;;;;4985570;28;20042;-63
2023/04/19 08:39:27;;;;;;;22.33;14.73;;;11.30;83.30;;;;;;4983583;28;20038;-64
2023/04/19 08:41:55;;;;;;;24.48;15.20;;;11.30;83.10;;;;;;4982729;28;20037;-64
2023/04/19 08:44:22;;;;;;;23.35;14.25;;;11.40;83.90;;;;;;4981779;28;20147;-64
2023/04/19 08:46:49;;;;;;;23.92;15.50;;;11.40;82.90;;;;;;4980939;28;20065;-64
2023/04/19 08:49:18;;;;;;;22.90;14.80;;;11.50;82.70;;;;;;4983144;28;20153;-64
2023/04/19 08:51:47;;;;;;;21.95;14.13;;;11.50;82.50;;;;;;4983434;28;20058;-64
2023/04/19 08:54:14;;;;;;;23.27;15.38;;;11.50;82.60;;;;;;4984247;28;20089;-64
2023/04/19 08:56:40;;;;;;;25.92;14.75;;;11.60;82.60;;;;;;4982513;28;20039;-64
2023/04/19 08:59:05;;;;;;;26.75;16.75;;;11.60;82.20;;;;;;4982098;28;20449;-63
2023/04/19 09:01:31;;;;;;;26.58;15.25;;;11.60;82.70;;;;;;4983491;28;20462;-64
2023/04/19 09:03:57;;;;;;;25.05;15.07;;;11.60;81.80;;;;;;4982540;28;20034;-64
2023/04/19 09:06:23;;;;;;;23.83;14.90;;;11.60;81.70;;;;;;4982062;28;20093;-64
2023/04/19 09:08:51;;;;;;;21.75;14.45;;;11.60;81.70;;;;;;4981012;28;20039;-64
2023/04/19 09:11:18;;;;;;;21.10;15.07;;;11.70;81.80;;;;;;4983092;28;20046;-64
2023/04/19 09:13:44;;;;;;;22.08;14.73;;;11.70;81.70;;;;;;4983221;28;20058;-64
2023/04/19 09:16:23;;;;;;;24.45;15.75;;;11.70;81.70;;;;;;4984061;28;20084;-64
2023/04/19 09:18:54;;;;;;;22.63;14.90;;;11.70;81.60;;;;;;4980296;28;20296;-64
2023/04/19 09:21:30;;;;;;;20.98;15.25;;;11.70;81.50;;;;;;4984013;28;20823;-64
2023/04/19 09:23:57;;;;;;;22.48;15.00;;;11.80;81.30;;;;;;4983937;28;20081;-64
2023/04/19 09:26:22;;;;;;;23.45;14.98;;;11.80;81.30;;;;;;4960310;28;20070;-64
2023/04/19 09:29:01;;;;;;;20.83;14.30;;;11.90;81.20;;;;;;4982760;28;20520;-64
2023/04/19 09:31:33;;;;;;;20.63;14.43;;;11.90;80.80;;;;;;4982580;28;20089;-64
2023/04/19 09:34:13;;;;;;;20.08;14.20;;;11.90;81.00;;;;;;4983169;28;20157;-64
2023/04/19 09:36:39;;;;;;;21.17;14.35;;;11.90;80.80;;;;;;4983675;28;20045;-64
2023/04/19 09:39:05;;;;;;;18.98;13.82;;;11.90;80.70;;;;;;4982988;28;20078;-64
2023/04/19 09:41:36;;;;;;;21.05;14.38;;;11.90;80.50;;;;;;4984588;28;20058;-64
2023/04/19 09:44:14;;;;;;;22.63;14.20;;;11.90;80.30;;;;;;4984779;28;20054;-64
2023/04/19 09:46:41;;;;;;;18.33;13.40;;;11.90;79.60;;;;;;4984927;28;20061;-62
2023/04/19 09:49:14;;;;;;;20.25;13.85;;;11.90;79.80;;;;;;4987806;28;20065;-64
2023/04/19 09:51:43;;;;;;;20.65;13.98;;;11.90;80.40;;;;;;4985716;28;20034;-64
2023/04/19 09:54:10;;;;;;;18.73;13.00;;;11.90;79.40;;;;;;4985601;28;20039;-64
2023/04/19 09:56:37;;;;;;;17.63;13.38;;;11.90;80.10;;;;;;4987276;28;20035;-64
2023/04/19 09:59:05;;;;;;;21.95;14.75;;;11.90;80.30;;;;;;4985588;28;20038;-64
2023/04/19 10:01:57;;;;;;;20.13;14.07;;;11.90;80.60;;;;;;4985396;28;20034;-64
2023/04/19 10:04:22;;;;;;;18.73;13.18;;;11.80;79.40;;;;;;4977908;28;20125;-64
2023/04/19 10:06:50;;;;;;;20.15;13.32;;;11.80;80.00;;;;;;4985295;28;20197;-63
2023/04/19 10:09:17;;;;;;;18.17;12.85;;;11.80;80.30;;;;;;4984275;28;20544;-64
2023/04/19 10:11:48;;;;;;;19.08;13.43;;;11.80;80.50;;;;;;4967714;28;20038;-64
2023/04/19 10:14:15;;;;;;;18.67;13.68;;;11.80;80.40;;;;;;4984273;28;20034;-63
2023/04/19 10:16:41;;;;;;;20.15;13.57;;;11.90;80.50;;;;;;4985512;28;20037;-63
2023/04/19 10:19:12;;;;;;;21.13;13.80;;;11.90;80.50;;;;;;4984751;28;20043;-64
2023/04/19 10:21:45;;;;;;;21.02;14.20;;;12.00;80.40;;;;;;4986509;28;20030;-64
2023/04/19 10:24:12;;;;;;;20.67;13.98;;;12.00;80.50;;;;;;4987081;28;20047;-63
2023/04/19 10:27:12;;;;;;;19.42;13.57;;;12.10;80.60;;;;;;4987464;28;20133;-64
2023/04/19 10:29:54;;;;;;;19.35;13.65;;;12.10;80.60;;;;;;4986915;28;20093;-64
2023/04/19 10:32:20;;;;;;;17.20;12.57;;;12.20;80.00;;;;;;4984658;28;20034;-64
2023/04/19 10:34:46;;;;;;;20.15;14.68;;;12.30;80.30;;;;;;4985127;28;20038;-64
2023/04/19 10:37:15;;;;;;;18.95;13.52;;;12.40;80.10;;;;;;4984248;28;20049;-64
2023/04/19 10:39:43;;;;;;;17.35;13.65;;;12.50;79.70;;;;;;4965143;28;20034;-64
2023/04/19 10:42:09;;;;;;;18.63;13.43;;;12.60;79.60;;;;;;4985031;28;20130;-64
2023/04/19 10:44:35;;;;;;;18.73;14.07;;;12.70;79.40;;;;;;4984183;28;20118;-64
2023/04/19 10:47:00;;;;;;;17.08;13.18;;;12.70;79.30;;;;;;4984554;28;20481;-65
2023/04/19 10:49:30;;;;;;;18.88;13.63;;;12.80;79.10;;;;;;4984141;28;20066;-64
2023/04/19 10:51:56;;;;;;;19.13;12.95;;;12.90;78.70;;;;;;4986275;28;20077;-64
2023/04/19 10:54:34;;;;;;;18.42;13.32;;;13.00;78.90;;;;;;4984286;28;20528;-64
2023/04/19 10:57:04;;;;;;;20.10;13.00;;;13.00;78.60;;;;;;4985317;28;20509;-64
2023/04/19 10:59:31;;;;;;;19.90;14.15;;;13.10;78.70;;;;;;4986315;28;20125;-64
2023/04/19 11:01:59;;;;;;;20.58;13.63;;;13.20;78.60;;;;;;4985356;28;20457;-64
2023/04/19 11:04:31;;;;;;;22.67;15.27;;;13.30;78.40;;;;;;4986253;28;20113;-64
2023/04/19 11:07:04;;;;;;;19.85;14.18;;;13.40;77.20;;;;;;4984426;28;20118;-64
2023/04/19 11:09:34;;;;;;;19.20;13.95;;;13.40;77.00;;;;;;4985212;28;20065;-64
2023/04/19 11:12:07;;;;;;;21.33;13.48;;;13.50;76.90;;;;;;4982300;28;20038;-64
2023/04/19 11:14:38;;;;;;;19.70;13.82;;;13.50;76.70;;;;;;4980942;28;20046;-63
2023/04/19 11:17:17;;;;;;;20.77;13.45;;;13.60;77.00;;;;;;4982685;28;20062;-64
2023/04/19 11:20:01;;;;;;;19.08;12.90;;;13.60;76.40;;;;;;4983740;28;20034;-64
2023/04/19 11:22:32;;;;;;;17.23;12.70;;;13.70;76.10;;;;;;4984156;28;20045;-63
2023/04/19 11:25:07;;;;;;;18.95;13.55;;;13.80;76.60;;;;;;4982907;28;20046;-63
2023/04/19 11:27:33;;;;;;;16.92;13.23;;;13.90;75.70;;;;;;4985004;28;20042;-64
2023/04/19 11:30:10;;;;;;;18.00;12.95;;;14.00;76.30;;;;;;4984758;28;20026;-63
2023/04/19 11:32:37;;;;;;;20.65;13.43;;;14.10;75.80;;;;;;4980727;28;20049;-64
2023/04/19 11:35:07;;;;;;;17.88;13.43;;;14.10;76.10;;;;;;4983086;28;20057;-64
2023/04/19 11:37:37;;;;;;;17.52;12.85;;;14.20;75.80;;;;;;4984900;28;20034;-64
2023/04/19 11:40:05;;;;;;;16.30;13.13;;;14.40;75.80;;;;;;4984699;28;20026;-64
2023/04/19 11:42:31;;;;;;;17.92;12.90;;;14.40;75.20;;;;;;4983566;28;20073;-64
2023/04/19 11:44:58;;;;;;;18.13;13.23;;;14.50;75.10;;;;;;4983581;28;20517;-64
2023/04/19 11:47:23;;;;;;;17.67;12.88;;;14.60;74.60;;;;;;4982135;28;20506;-64
2023/04/19 11:49:49;;;;;;;16.10;12.50;;;14.70;74.10;;;;;;4984823;28;20101;-64
2023/04/19 11:52:22;;;;;;;18.67;12.45;;;14.70;74.00;;;;;;4982283;28;20042;-64
2023/04/19 11:54:49;;;;;;;18.05;12.77;;;14.80;72.70;;;;;;4983274;28;20038;-64
2023/04/19 11:57:29;;;;;;;15.18;12.05;;;14.80;73.30;;;;;;4982828;28;20142;-63
2023/04/19 12:00:07;;;;;;;15.57;12.10;;;14.80;72.00;;;;;;4983588;28;20042;-64
2023/04/19 12:02:40;;;;;;;14.60;12.02;;;14.90;72.50;;;;;;4982104;28;20130;-64
2023/04/19 12:05:15;;;;;;;15.45;11.20;;;14.90;71.90;;;;;;4983803;28;20042;-64
2023/04/19 12:07:59;;;;;;;13.50;11.07;;;14.90;71.80;;;;;;4966915;28;20493;-64
2023/04/19 12:10:25;;;;;;;16.58;11.80;;;14.90;71.30;;;;;;4983169;28;20038;-64
2023/04/19 12:12:51;;;;;;;15.70;11.48;;;14.90;71.40;;;;;;4980679;28;20080;-64
2023/04/19 12:15:16;;;;;;;15.27;12.02;;;14.90;71.50;;;;;;4981430;28;20049;-64
2023/04/19 12:18:00;;;;;;;14.93;11.23;;;14.80;71.10;;;;;;4981631;28;20050;-64
2023/04/19 12:20:37;;;;;;;13.73;10.32;;;14.80;69.00;;;;;;4964736;28;20126;-64
2023/04/19 12:23:03;;;;;;;14.23;10.93;;;14.80;70.40;;;;;;4984041;28;20034;-64
2023/04/19 12:25:33;;;;;;;16.70;12.35;;;14.70;70.00;;;;;;4985521;28;20053;-64
2023/04/19 12:28:03;;;;;;;15.93;11.55;;;14.60;70.60;;;;;;4983692;28;20125;-64